createdAt,value
2022-10-28T00:01:45.887Z,77.40
2022-10-28T00:04:43.277Z,76.99
2022-10-28T00:07:35.679Z,76.82
2022-10-28T00:11:03.043Z,76.87
2022-10-28T00:13:40.921Z,76.86
2022-10-28T00:16:27.628Z,76.87
2022-10-28T00:20:26.550Z,77.15
2022-10-28T00:22:47.088Z,77.32
2022-10-28T00:25:33.247Z,77.31
2022-10-28T00:28:30.935Z,77.32
2022-10-28T00:31:54.211Z,77.38
2022-10-28T00:34:32.987Z,77.60
2022-10-28T00:37:14.519Z,77.76
2022-10-28T00:39:46.320Z,77.79
2022-10-28T00:42:49.469Z,77.76
2022-10-28T00:45:49.957Z,77.84
2022-10-28T00:48:45.132Z,77.86
2022-10-28T01:00:30.602Z,78.32
2022-10-28T01:04:56.903Z,78.37
2022-10-28T01:07:36.793Z,78.38
2022-10-28T01:10:41.898Z,78.48
2022-10-28T01:14:15.312Z,78.48
2022-10-28T01:18:17.284Z,78.54
2022-10-28T01:21:26.298Z,78.33
2022-10-28T01:24:26.391Z,78.27
2022-10-28T01:27:56.876Z,78.19
2022-10-28T01:31:42.209Z,78.43
2022-10-28T01:34:43.253Z,78.28
2022-10-28T01:38:09.725Z,78.10
2022-10-28T01:41:48.572Z,77.98
2022-10-28T01:45:34.375Z,78.00
2022-10-28T01:51:42.080Z,78.10
2022-10-28T01:57:51.534Z,78.25
2022-10-28T02:01:00.443Z,78.14
2022-10-28T02:03:57.313Z,78.05
2022-10-28T02:06:43.148Z,78.03
2022-10-28T02:10:41.097Z,77.87
2022-10-28T02:13:45.753Z,77.85
2022-10-28T02:20:45.560Z,78.08
2022-10-28T02:24:21.687Z,78.29
2022-10-28T02:27:40.392Z,78.38
2022-10-28T02:30:37.693Z,78.38
2022-10-28T02:33:43.321Z,78.48
2022-10-28T02:36:52.699Z,78.53
2022-10-28T02:39:53.756Z,78.65
2022-10-28T02:43:00.210Z,78.61
2022-10-28T02:45:57.745Z,78.66
2022-10-28T02:49:55.775Z,78.63
2022-10-28T02:52:47.336Z,78.46
2022-10-28T02:55:59.094Z,78.42
2022-10-28T02:58:43.285Z,78.29
2022-10-28T03:01:37.401Z,78.15
2022-10-28T03:05:00.234Z,78.09
2022-10-28T03:07:59.960Z,78.03
2022-10-28T03:10:59.716Z,77.95
2022-10-28T03:13:52.503Z,77.75
2022-10-28T03:16:38.498Z,77.83
2022-10-28T03:19:42.438Z,77.99
2022-10-28T03:26:10.038Z,77.88
2022-10-28T03:30:38.853Z,77.78
2022-10-28T03:32:27.175Z,77.87
2022-10-28T03:35:28.376Z,77.96
2022-10-28T03:38:26.665Z,77.85
2022-10-28T03:41:36.147Z,77.85
2022-10-28T03:47:39.581Z,77.89
2022-10-28T03:50:34.528Z,78.04
2022-10-28T03:57:02.906Z,77.74
2022-10-28T04:00:16.759Z,77.63
2022-10-28T04:03:12.288Z,77.59
2022-10-28T04:06:20.686Z,77.58
2022-10-28T04:09:46.200Z,77.70
2022-10-28T04:12:29.886Z,77.51
2022-10-28T04:15:34.553Z,77.39
2022-10-28T04:18:36.769Z,77.32
2022-10-28T04:21:15.663Z,77.40
2022-10-28T04:23:55.358Z,77.42
2022-10-28T04:26:43.785Z,77.56
2022-10-28T04:30:05.877Z,77.57
2022-10-28T04:33:27.851Z,77.64
2022-10-28T04:43:08.578Z,77.49
2022-10-28T04:46:09.172Z,77.48
2022-10-28T04:49:20.459Z,77.47
2022-10-28T04:53:42.048Z,77.48
2022-10-28T04:59:20.195Z,77.81
2022-10-28T05:02:42.527Z,77.75
2022-10-28T05:05:39.641Z,77.58
2022-10-28T05:08:44.990Z,77.63
2022-10-28T05:15:19.862Z,77.57
2022-10-28T05:18:18.216Z,77.29
2022-10-28T05:21:48.828Z,77.18
2022-10-28T05:24:48.224Z,77.40
2022-10-28T05:30:42.964Z,77.48
2022-10-28T05:37:28.380Z,77.63
2022-10-28T05:40:12.624Z,77.66
2022-10-28T05:42:56.143Z,77.65
2022-10-28T05:45:59.860Z,77.80
2022-10-28T05:48:41.859Z,78.01
2022-10-28T05:51:43.038Z,78.13
2022-10-28T05:54:19.598Z,78.23
2022-10-28T05:57:07.426Z,78.25
2022-10-28T05:59:59.857Z,78.48
2022-10-28T06:02:47.187Z,78.58
2022-10-28T06:05:47.926Z,78.66
2022-10-28T06:08:50.486Z,78.75
2022-10-28T06:11:55.042Z,78.66
2022-10-28T06:15:51.690Z,78.60
2022-10-28T06:18:32.771Z,78.67
2022-10-28T06:21:20.184Z,78.47
2022-10-28T06:29:05.411Z,78.64
2022-10-28T06:31:46.469Z,78.87
2022-10-28T06:34:57.791Z,78.96
2022-10-28T06:43:42.101Z,79.11
2022-10-28T06:45:41.178Z,79.27
2022-10-28T06:48:54.924Z,79.44
2022-10-28T06:52:09.882Z,79.52
2022-10-28T06:55:22.709Z,79.33
2022-10-28T06:58:17.309Z,79.12
2022-10-28T07:02:41.461Z,79.07
2022-10-28T07:05:55.505Z,78.93
2022-10-28T07:13:06.864Z,79.01
2022-10-28T07:16:08.581Z,78.70
2022-10-28T07:23:10.966Z,78.11
2022-10-28T07:26:29.763Z,77.84
2022-10-28T07:30:02.291Z,77.68
2022-10-28T07:36:45.008Z,77.36
2022-10-28T07:44:10.859Z,76.98
2022-10-28T07:47:35.492Z,76.83
2022-10-28T07:51:58.784Z,77.49
2022-10-28T07:56:00.156Z,78.61
2022-10-28T07:59:29.913Z,78.81
2022-10-28T08:03:09.640Z,78.25
2022-10-28T08:06:57.904Z,77.47
2022-10-28T08:19:57.027Z,75.28
2022-10-28T08:22:43.305Z,74.55
2022-10-28T08:26:24.042Z,74.12
2022-10-28T09:44:12.702Z,66.02
2022-10-28T10:09:55.860Z,62.99
2022-10-28T10:13:17.118Z,61.15
2022-10-28T10:20:15.789Z,58.63
2022-10-28T10:25:18.466Z,58.47
2022-10-28T10:31:55.715Z,56.11
2022-10-28T10:36:00.051Z,54.59
2022-10-28T11:00:32.067Z,50.78
2022-10-28T11:03:28.066Z,50.27
2022-10-28T11:13:59.125Z,50.96
2022-10-28T11:17:18.496Z,52.04
2022-10-28T11:21:03.576Z,52.41
2022-10-28T11:25:11.729Z,53.41
2022-10-28T11:29:14.264Z,54.54
2022-10-28T11:33:44.803Z,55.37
2022-10-28T11:38:59.630Z,55.76
2022-10-28T11:43:29.896Z,56.07
2022-10-28T11:46:05.046Z,56.34
2022-10-28T11:50:06.149Z,56.30
2022-10-28T11:58:32.879Z,54.79
2022-10-28T12:02:00.506Z,54.17
2022-10-28T12:05:28.249Z,54.21
2022-10-28T12:14:17.721Z,54.08
2022-10-28T12:17:15.021Z,54.22
2022-10-28T12:20:13.720Z,54.03
2022-10-28T12:22:51.292Z,53.44
2022-10-28T12:25:33.893Z,53.37
2022-10-28T12:28:13.928Z,53.43
2022-10-28T12:30:42.722Z,53.27
2022-10-28T12:33:15.358Z,52.84
2022-10-28T12:35:53.765Z,52.80
2022-10-28T12:38:44.447Z,52.76
2022-10-28T12:41:27.037Z,52.59
2022-10-28T12:44:03.999Z,52.74
2022-10-28T12:49:52.707Z,52.40
2022-10-28T12:52:48.714Z,52.46
2022-10-28T12:55:30.330Z,52.45
2022-10-28T12:58:11.379Z,52.44
2022-10-28T13:00:48.826Z,52.66
2022-10-28T13:03:16.485Z,52.83
2022-10-28T13:05:56.105Z,53.07
2022-10-28T13:08:48.366Z,53.42
2022-10-28T13:11:18.760Z,53.78
2022-10-28T13:14:04.582Z,54.16
2022-10-28T13:17:15.366Z,54.55
2022-10-28T13:20:07.795Z,54.93
2022-10-28T13:22:58.142Z,55.36
2022-10-28T13:25:37.953Z,55.63
2022-10-28T13:28:07.375Z,55.84
2022-10-28T13:30:35.091Z,55.96
2022-10-28T13:33:11.563Z,56.05
2022-10-28T13:35:39.084Z,56.22
2022-10-28T13:38:12.666Z,56.10
2022-10-28T13:40:39.942Z,56.00
2022-10-28T13:43:40.075Z,55.95
2022-10-28T13:46:07.464Z,55.90
2022-10-28T13:48:41.030Z,55.99
2022-10-28T13:51:08.346Z,55.94
2022-10-28T13:53:44.733Z,56.10
2022-10-28T13:56:34.336Z,56.08
2022-10-28T13:59:14.157Z,56.11
2022-10-28T14:01:41.602Z,56.26
2022-10-28T14:04:32.056Z,56.17
2022-10-28T14:07:05.186Z,56.19
2022-10-28T14:09:35.739Z,56.33
2022-10-28T14:12:30.260Z,56.47
2022-10-28T14:15:40.298Z,56.56
2022-10-28T14:18:37.413Z,56.65
2022-10-28T14:21:02.145Z,56.60
2022-10-28T14:23:30.399Z,56.67
2022-10-28T14:26:04.772Z,56.64
2022-10-28T14:28:32.185Z,56.65
2022-10-28T14:31:11.815Z,56.72
2022-10-28T14:33:42.403Z,56.77
2022-10-28T14:36:18.490Z,56.93
2022-10-28T14:39:19.863Z,57.04
2022-10-28T14:42:33.848Z,57.30
2022-10-28T14:45:48.075Z,57.50
2022-10-28T14:48:39.950Z,57.77
2022-10-28T14:51:14.262Z,57.82
2022-10-28T14:53:44.107Z,58.04
2022-10-28T14:56:21.197Z,58.14
2022-10-28T14:58:49.731Z,58.28
2022-10-28T15:01:17.248Z,58.19
2022-10-28T15:04:12.462Z,58.31
2022-10-28T15:06:46.324Z,58.44
2022-10-28T15:09:22.268Z,58.60
2022-10-28T15:12:10.678Z,58.78
2022-10-28T15:14:51.658Z,58.91
2022-10-28T15:17:20.959Z,59.08
2022-10-28T15:19:52.694Z,59.23
2022-10-28T15:22:28.771Z,59.31
2022-10-28T15:25:17.530Z,59.49
2022-10-28T15:27:49.772Z,59.52
2022-10-28T15:30:24.859Z,59.68
2022-10-28T15:33:14.191Z,59.83
2022-10-28T15:35:41.831Z,59.92
2022-10-28T15:38:27.502Z,60.03
2022-10-28T15:40:55.230Z,60.18
2022-10-28T15:43:29.035Z,60.30
2022-10-28T15:46:16.202Z,60.41
2022-10-28T15:48:43.675Z,60.50
2022-10-28T15:51:17.192Z,60.61
2022-10-28T15:53:56.203Z,60.87
2022-10-28T15:56:26.180Z,61.06
2022-10-28T15:59:24.305Z,61.03
2022-10-28T16:07:08.379Z,61.55
2022-10-28T16:09:43.680Z,61.73
2022-10-28T16:12:22.778Z,61.82
2022-10-28T16:14:56.803Z,61.90
2022-10-28T16:17:28.661Z,62.09
2022-10-28T16:20:19.037Z,62.26
2022-10-28T16:22:47.866Z,62.39
2022-10-28T16:25:21.767Z,62.56
2022-10-28T16:27:50.655Z,62.73
2022-10-28T16:30:18.190Z,62.72
2022-10-28T16:32:48.557Z,62.84
2022-10-28T16:35:18.329Z,63.04
2022-10-28T16:37:50.673Z,63.16
2022-10-28T16:43:19.308Z,63.46
2022-10-28T16:45:49.065Z,63.67
2022-10-28T16:48:18.979Z,63.75
2022-10-28T16:50:53.682Z,63.87
2022-10-28T16:53:21.818Z,64.13
2022-10-28T16:55:49.437Z,64.32
2022-10-28T16:58:18.761Z,64.56
2022-10-28T17:00:47.106Z,64.74
2022-10-28T17:03:15.040Z,64.95
2022-10-28T17:05:44.413Z,65.10
2022-10-28T17:08:12.068Z,65.26
2022-10-28T17:10:41.338Z,65.32
2022-10-28T17:13:12.911Z,65.52
2022-10-28T17:15:41.062Z,65.62
2022-10-28T17:18:11.781Z,65.83
2022-10-28T17:20:39.194Z,65.86
2022-10-28T17:23:06.809Z,65.90
2022-10-28T17:25:34.336Z,65.89
2022-10-28T17:28:01.786Z,65.97
2022-10-28T17:30:30.482Z,66.07
2022-10-28T17:32:57.992Z,66.09
2022-10-28T17:35:27.291Z,66.28
2022-10-28T17:37:54.804Z,66.42
2022-10-28T17:40:22.638Z,66.40
2022-10-28T17:42:49.992Z,66.51
2022-10-28T17:45:21.008Z,66.56
2022-10-28T17:47:49.609Z,66.55
2022-10-28T17:50:17.457Z,66.63
2022-10-28T17:52:44.807Z,66.65
2022-10-28T17:55:12.224Z,66.75
2022-10-28T17:57:39.758Z,66.80
2022-10-28T18:00:08.723Z,66.81
2022-10-28T18:02:41.877Z,66.81
2022-10-28T18:05:09.401Z,67.01
2022-10-28T18:07:36.739Z,67.00
2022-10-28T18:10:04.939Z,66.96
2022-10-28T18:12:32.790Z,66.94
2022-10-28T18:15:00.192Z,66.91
2022-10-28T18:17:27.495Z,66.71
2022-10-28T18:19:57.168Z,66.58
2022-10-28T18:24:57.270Z,66.73
2022-10-28T18:27:24.624Z,66.71
2022-10-28T18:29:52.008Z,66.75
2022-10-28T18:32:19.915Z,66.66
2022-10-28T18:34:47.379Z,66.85
2022-10-28T18:37:14.924Z,66.86
2022-10-28T18:39:42.265Z,66.89
2022-10-28T18:42:12.226Z,66.97
2022-10-28T18:44:40.807Z,66.99
2022-10-28T18:47:08.276Z,67.10
2022-10-28T18:49:35.699Z,67.20
2022-10-28T18:52:03.358Z,67.25
2022-10-28T18:54:32.744Z,67.24
2022-10-28T18:57:00.112Z,67.24
2022-10-28T18:59:27.457Z,67.29
2022-10-28T19:01:56.077Z,67.30
2022-10-28T19:04:23.611Z,67.32
2022-10-28T19:06:51.172Z,67.27
2022-10-28T19:09:18.588Z,67.25
2022-10-28T19:11:45.947Z,67.09
2022-10-28T19:14:13.499Z,67.22
2022-10-28T19:16:40.904Z,67.39
2022-10-28T19:19:08.255Z,67.48
2022-10-28T19:21:35.685Z,67.49
2022-10-28T19:24:04.648Z,67.60
2022-10-28T19:26:33.235Z,67.62
2022-10-28T19:29:00.605Z,67.72
2022-10-28T19:31:28.033Z,67.80
2022-10-28T19:33:56.573Z,67.85
2022-10-28T19:36:27.317Z,67.68
2022-10-28T19:38:56.560Z,67.87
2022-10-28T19:41:29.310Z,67.85
2022-10-28T19:44:02.413Z,68.12
2022-10-28T19:46:34.361Z,68.24
2022-10-28T19:49:05.155Z,68.54
2022-10-28T19:51:36.972Z,68.71
2022-10-28T19:54:10.366Z,68.94
2022-10-28T19:56:38.879Z,68.97
2022-10-28T19:59:06.626Z,69.14
2022-10-28T20:01:37.806Z,69.30
2022-10-28T20:04:08.004Z,69.35
2022-10-28T20:06:39.545Z,69.50
2022-10-28T20:09:07.398Z,69.69
2022-10-28T20:11:37.753Z,69.71
2022-10-28T20:14:10.891Z,69.67
2022-10-28T20:16:41.898Z,69.69
2022-10-28T20:19:09.906Z,69.73
2022-10-28T20:21:38.530Z,69.71
2022-10-28T20:24:08.311Z,69.84
2022-10-28T20:26:38.280Z,70.09
2022-10-28T20:29:08.041Z,69.99
2022-10-28T20:31:37.895Z,69.94
2022-10-28T20:34:06.692Z,69.97
2022-10-28T20:36:35.354Z,70.00
2022-10-28T20:39:11.390Z,70.04
2022-10-28T20:41:40.298Z,70.22
2022-10-28T20:44:08.153Z,70.36
2022-10-28T20:46:37.384Z,70.27
2022-10-28T20:49:09.228Z,70.23
2022-10-28T20:51:36.761Z,70.15
2022-10-28T20:54:04.670Z,70.26
2022-10-28T20:56:36.652Z,70.21
2022-10-28T20:59:05.530Z,70.12
2022-10-28T21:01:36.748Z,70.14
2022-10-28T21:04:09.150Z,70.19
2022-10-28T21:06:39.752Z,70.32
2022-10-28T21:09:08.406Z,70.38
2022-10-28T21:11:36.001Z,70.58
2022-10-28T21:14:03.434Z,70.67
2022-10-28T21:16:31.299Z,70.63
2022-10-28T21:18:59.124Z,70.67
2022-10-28T21:21:28.754Z,70.76
2022-10-28T21:23:58.863Z,70.75
2022-10-28T21:26:26.743Z,70.72
2022-10-28T21:28:55.929Z,70.81
2022-10-28T21:31:23.838Z,70.79
2022-10-28T21:33:51.209Z,70.92
2022-10-28T21:36:20.754Z,70.90
2022-10-28T21:38:51.812Z,70.95
2022-10-28T21:41:20.343Z,70.91
2022-10-28T21:43:50.518Z,70.97
2022-10-28T21:46:20.328Z,70.97
2022-10-28T21:48:47.789Z,71.04
2022-10-28T21:51:16.966Z,71.00
2022-10-28T21:53:44.786Z,71.00
2022-10-28T21:56:19.833Z,70.94
2022-10-28T21:58:49.512Z,70.90
2022-10-28T22:01:22.392Z,70.91
2022-10-28T22:03:51.743Z,70.88
2022-10-28T22:06:19.266Z,70.79
2022-10-28T22:08:47.184Z,70.91
2022-10-28T22:11:20.732Z,70.89
2022-10-28T22:13:58.684Z,70.75
2022-10-28T22:16:29.231Z,70.74
2022-10-28T22:19:04.918Z,70.76
2022-10-28T22:21:39.081Z,70.64
2022-10-28T22:24:07.224Z,70.46
2022-10-28T22:26:34.593Z,70.51
2022-10-28T22:29:02.165Z,70.47
2022-10-28T22:31:31.917Z,70.53
2022-10-28T22:34:00.135Z,70.51
2022-10-28T22:36:29.587Z,70.56
2022-10-28T22:38:57.632Z,70.68
2022-10-28T22:41:29.927Z,70.62
2022-10-28T22:44:00.328Z,70.63
2022-10-28T22:46:32.794Z,70.56
2022-10-28T22:49:00.152Z,70.51
2022-10-28T22:51:27.546Z,70.41
2022-10-28T22:53:55.046Z,70.42
2022-10-28T22:56:25.357Z,70.31
2022-10-28T22:58:59.343Z,70.29
2022-10-28T23:01:28.681Z,70.45
2022-10-28T23:03:56.674Z,70.39
2022-10-28T23:06:26.606Z,70.37
2022-10-28T23:08:54.691Z,70.29
2022-10-28T23:11:22.957Z,70.33
2022-10-28T23:13:52.689Z,70.33
2022-10-28T23:16:21.939Z,70.31
2022-10-28T23:18:49.745Z,70.38
2022-10-28T23:21:25.565Z,70.43
2022-10-28T23:24:00.018Z,70.32
2022-10-28T23:26:29.495Z,70.41
2022-10-28T23:28:59.471Z,70.53
2022-10-28T23:31:27.955Z,70.62
2022-10-28T23:33:56.298Z,70.60
2022-10-28T23:36:23.842Z,70.45
2022-10-28T23:38:51.920Z,70.40
2022-10-28T23:41:20.397Z,70.48
2022-10-28T23:43:48.798Z,70.39
2022-10-28T23:46:17.108Z,70.33
2022-10-28T23:48:44.445Z,70.43
2022-10-28T23:51:11.888Z,70.32
2022-10-28T23:53:39.316Z,70.19
2022-10-28T23:56:07.025Z,70.10
2022-10-28T23:58:34.380Z,70.12
